Great Eagle — WDJ5132 — position and weather

sailwx.info

Track history (hours):
 
Tides and Currents Weather Stations Pressure Air Temp Water Temp Dewpoint Dewpoint Depression Visibility Wind Speed Wind Dir Waves Ship Positions

Great Eagle

Owner: HNY Ferry Fleet LLC, New York, NY. More information available from US FCC via Universal Licensing System and Coast Guard Vessel Documentation Center.

Last reported at 2018-Feb-18 03:23 UTC. Time now 2018-Feb-18 09:14 UTC.
Position N 40°42' W 073°58'.

Length 26 m.

Type: Passenger vessel. MMSI: 367784640.

Date/timePositionNaut miles runAvg speedWind from/ knotsBaromVisibWave heightAir tempDewpointWater temp
2018-Feb-18 03:23N 40°42' W 073°58'2 4.8
2018-Feb-18 03:00N 40°44' W 073°58'3 5.1
2018-Feb-18 02:31N 40°42' W 074°00'2 4.2
2018-Feb-18 02:00N 40°43' W 073°58'1 1.6
2018-Feb-18 01:31N 40°44' W 073°58'3 5.1
2018-Feb-18 01:00N 40°42' W 074°00'2 4.3
2018-Feb-18 00:31N 40°43' W 073°58'1 1.3
2018-Feb-18 00:00N 40°44' W 073°58'3 5.1
2018-Feb-17 23:30N 40°42' W 074°00'2 4.2
2018-Feb-17 23:00N 40°43' W 073°58'1 1.2
2018-Feb-17 22:30N 40°44' W 073°58'3 5.2
2018-Feb-17 22:01N 40°42' W 074°00'2 4.3
2018-Feb-17 21:31N 40°43' W 073°58'1 1.1
2018-Feb-17 20:59N 40°44' W 073°58'3 5.2
2018-Feb-17 20:30N 40°42' W 074°00'2 4.3
2018-Feb-17 20:00N 40°43' W 073°58'1 1.2
2018-Feb-17 19:31N 40°44' W 073°58'3 5.1
2018-Feb-17 19:01N 40°42' W 074°00'0 0.1
2018-Feb-17 18:30N 40°42' W 074°00'1 2.8
2018-Feb-17 18:01N 40°42' W 073°59'2 2.9
2018-Feb-17 17:29N 40°44' W 073°58'2 3.7
2018-Feb-17 17:00N 40°42' W 073°58'0 0.0
2018-Feb-17 02:35N 40°42' W 073°59'118.6
2018-Feb-17 02:31N 40°42' W 074°00'4 8.3
2018-Feb-17 01:59N 40°46' W 073°57'1 1.9
2018-Feb-17 01:30N 40°45' W 073°57'3 7.0
2018-Feb-17 01:01N 40°42' W 074°00'0 0.1
2018-Feb-17 00:30N 40°42' W 074°00'4 7.9
2018-Feb-17 00:00N 40°45' W 073°57'1 1.4
2018-Feb-16 23:30N 40°45' W 073°58'3 6.3
2018-Feb-16 22:58N 40°42' W 074°00'3 7.6
2018-Feb-16 22:31N 40°45' W 073°57'1 1.1
2018-Feb-16 22:00N 40°45' W 073°57'4 8.3
2018-Feb-16 21:30N 40°42' W 074°00'2 3.0
2018-Feb-16 21:00N 40°42' W 073°58'0 0.0
2018-Feb-16 20:30N 40°42' W 073°58'0 0.0
2018-Feb-16 19:59N 40°42' W 073°58'0 0.0
2018-Feb-16 19:30N 40°42' W 073°58'0 0.0
2018-Feb-16 18:59N 40°42' W 073°58'2 4.6
2018-Feb-16 18:30N 40°41' W 074°01'0 0.0
2018-Feb-16 18:00N 40°41' W 074°01'1 1.6
2018-Feb-16 17:31N 40°42' W 074°00'0 0.2
2018-Feb-16 16:59N 40°42' W 074°00'2 3.1
2018-Feb-16 16:30N 40°42' W 073°58'1 1.4
2018-Feb-16 16:00N 40°42' W 073°59'1 1.9
2018-Feb-16 15:31N 40°42' W 074°00'4 7.6
2018-Feb-16 15:00N 40°38' W 074°02'4 7.1
2018-Feb-16 14:30N 40°42' W 074°00'3 6.6
2018-Feb-16 13:59N 40°45' W 073°58'2 4.7
2018-Feb-16 13:30N 40°46' W 073°56'3 5.7
2018-Feb-16 13:01N 40°44' W 073°58'2 4.5
2018-Feb-16 12:31N 40°42' W 074°00'4 8.1
2018-Feb-16 12:00N 40°46' W 073°57'4 7.1
2018-Feb-16 11:30N 40°42' W 073°58'0 0.0
2018-Feb-16 11:00N 40°42' W 073°58'0 0.0
2018-Feb-16 01:38N 40°42' W 073°58'0 3.1
2018-Feb-16 01:30N 40°42' W 073°59'1 2.5
2018-Feb-16 01:00N 40°44' W 073°58'0 0.3
2018-Feb-16 00:29N 40°43' W 073°58'2 4.5
2018-Feb-16 00:00N 40°42' W 074°00'3 5.1
2018-Feb-15 23:30N 40°44' W 073°58'1 1.3
2018-Feb-15 23:00N 40°43' W 073°58'2 3.5
2018-Feb-15 22:30N 40°42' W 073°60'3 5.2
2018-Feb-15 22:00N 40°44' W 073°58'1 2.3
2018-Feb-15 21:30N 40°43' W 073°58'2 3.5
2018-Feb-15 21:00N 40°42' W 073°60'3 5.5
2018-Feb-15 20:30N 40°45' W 073°58'1 2.8
2018-Feb-15 20:00N 40°43' W 073°58'2 3.1
2018-Feb-15 19:30N 40°42' W 073°60'3 5.5
2018-Feb-15 19:00N 40°45' W 073°58'2 4.2
2018-Feb-15 18:30N 40°43' W 073°58'1 2.3
2018-Feb-15 18:00N 40°42' W 073°60'3 5.4
2018-Feb-15 17:30N 40°45' W 073°58'2 4.5
2018-Feb-15 17:01N 40°42' W 073°59'1 1.1
2018-Feb-15 16:30N 40°42' W 073°59'2 4.8
2018-Feb-15 16:00N 40°45' W 073°58'2 4.4
2018-Feb-15 15:30N 40°43' W 073°58'0 0.2
2018-Feb-15 15:00N 40°43' W 073°58'2 4.1
2018-Feb-15 14:30N 40°45' W 073°58'3 5.1
2018-Feb-15 13:58N 40°42' W 073°60'2 3.3
2018-Feb-15 13:30N 40°43' W 073°58'1 2.9
2018-Feb-15 13:01N 40°45' W 073°58'2 4.9
2018-Feb-15 12:31N 40°42' W 073°59'1 2.5
2018-Feb-15 12:00N 40°43' W 073°58'1 2.6
2018-Feb-15 11:30N 40°45' W 073°58'2 4.7
2018-Feb-15 11:01N 40°42' W 073°58'0 0.4
2018-Feb-15 10:30N 40°42' W 073°58'0 0.0
2018-Feb-15 03:19N 40°42' W 073°58'3 8.0
2018-Feb-15 02:59N 40°45' W 073°58'2 4.5
2018-Feb-15 02:31N 40°43' W 073°58'0 0.0
2018-Feb-15 02:00N 40°43' W 073°58'2 4.2
2018-Feb-15 01:30N 40°45' W 073°58'2 4.3
2018-Feb-15 01:00N 40°43' W 073°58'0 0.1
2018-Feb-15 00:30N 40°43' W 073°58'2 4.1
2018-Feb-15 00:00N 40°45' W 073°58'3 5.3
2018-Feb-14 23:30N 40°42' W 073°60'1 2.2
2018-Feb-14 23:00N 40°43' W 073°58'2 4.3
2018-Feb-14 22:30N 40°45' W 073°58'3 5.4
2018-Feb-14 22:01N 40°42' W 073°60'2 3.4
2018-Feb-14 21:30N 40°43' W 073°58'1 2.5
2018-Feb-14 21:00N 40°44' W 073°58'3 5.3
2018-Feb-14 20:30N 40°42' W 073°60'2 3.4
2018-Feb-14 20:00N 40°43' W 073°58'1 1.7
2018-Feb-14 19:31N 40°44' W 073°58'2 4.7
2018-Feb-14 19:00N 40°42' W 073°60'2 3.5
2018-Feb-14 18:30N 40°43' W 073°58'1 1.9
2018-Feb-14 18:00N 40°44' W 073°58'3 5.3
2018-Feb-14 17:30N 40°42' W 074°00'2 4.0
2018-Feb-14 17:01N 40°43' W 073°58'1 1.2
2018-Feb-14 16:31N 40°44' W 073°58'3 5.0
2018-Feb-14 16:00N 40°42' W 074°00'2 4.3
2018-Feb-14 15:30N 40°43' W 073°58'1 1.1
2018-Feb-14 15:01N 40°44' W 073°58'3 5.0
2018-Feb-14 14:31N 40°42' W 074°00'3 5.1
2018-Feb-14 14:00N 40°44' W 073°58'1 1.4
2018-Feb-14 13:30N 40°43' W 073°58'2 4.2
2018-Feb-14 13:01N 40°42' W 074°00'3 5.0
2018-Feb-14 12:31N 40°44' W 073°58'1 1.3
2018-Feb-14 12:00N 40°43' W 073°58'2 4.3
2018-Feb-14 11:30N 40°42' W 074°00'2 3.0
2018-Feb-14 10:59N 40°42' W 073°58'0 0.0
2018-Feb-14 01:37N 40°42' W 073°58'0 4.2
2018-Feb-14 01:30N 40°42' W 073°59'2 3.2
2018-Feb-14 01:00N 40°44' W 073°58'0 0.9
2018-Feb-14 00:30N 40°43' W 073°58'2 4.5
2018-Feb-14 00:01N 40°42' W 074°00'3 5.0
2018-Feb-13 23:30N 40°44' W 073°58'1 1.5
2018-Feb-13 23:00N 40°43' W 073°58'2 4.1
2018-Feb-13 22:30N 40°42' W 074°00'3 5.9
2018-Feb-13 22:00N 40°45' W 073°58'1 2.5
2018-Feb-13 21:30N 40°43' W 073°58'2 4.2
2018-Feb-13 21:00N 40°42' W 074°00'3 6.0
2018-Feb-13 20:30N 40°45' W 073°58'1 2.9
2018-Feb-13 20:01N 40°43' W 073°58'2 3.1
2018-Feb-13 19:31N 40°42' W 073°60'3 5.5
2018-Feb-13 19:00N 40°45' W 073°58'2 4.1
2018-Feb-13 18:30N 40°43' W 073°58'1 2.3
2018-Feb-13 18:00N 40°42' W 073°60'3 5.6
2018-Feb-13 17:30N 40°45' W 073°58'2 4.0
2018-Feb-13 17:00N 40°43' W 073°58'1 1.9
2018-Feb-13 16:30N 40°42' W 073°60'3 5.0
2018-Feb-13 16:00N 40°45' W 073°58'2 4.3
2018-Feb-13 15:30N 40°43' W 073°58'1 1.3
2018-Feb-13 15:00N 40°42' W 073°59'2 4.7
2018-Feb-13 14:30N 40°45' W 073°58'2 4.4
2018-Feb-13 14:00N 40°42' W 073°59'0 0.2
2018-Feb-13 13:30N 40°43' W 073°58'2 4.2
2018-Feb-13 13:00N 40°45' W 073°58'2 5.0
2018-Feb-13 12:30N 40°42' W 073°59'1 1.6
2018-Feb-13 12:00N 40°43' W 073°58'2 4.4
2018-Feb-13 11:30N 40°45' W 073°58'3 5.4
2018-Feb-13 11:00N 40°42' W 073°58'0 0.0
2018-Feb-13 10:30N 40°42' W 073°58'0 0.0
2018-Feb-13 03:09N 40°42' W 073°58'1 9.0
2018-Feb-13 03:01N 40°43' W 073°58'1 1.6
2018-Feb-13 02:30N 40°43' W 073°58'1 2.3
2018-Feb-13 02:01N 40°42' W 073°60'3 5.3
2018-Feb-13 01:30N 40°45' W 073°58'2 4.3
2018-Feb-13 01:01N 40°43' W 073°58'1 1.0
2018-Feb-13 00:30N 40°42' W 073°59'2 4.5
2018-Feb-13 00:01N 40°45' W 073°58'2 4.5
2018-Feb-12 23:31N 40°42' W 073°59'1 1.2
2018-Feb-12 23:00N 40°43' W 073°58'2 4.3
2018-Feb-12 22:30N 40°45' W 073°58'3 5.3
2018-Feb-12 22:00N 40°42' W 073°60'1 2.3
2018-Feb-12 21:31N 40°43' W 073°58'2 4.1
2018-Feb-12 21:00N 40°45' W 073°58'3 5.5
2018-Feb-12 20:30N 40°42' W 073°60'1 2.4
2018-Feb-12 20:00N 40°43' W 073°58'2 4.0
2018-Feb-12 19:30N 40°45' W 073°58'3 5.6
2018-Feb-12 19:00N 40°42' W 073°60'2 3.5
2018-Feb-12 18:30N 40°43' W 073°58'1 1.2
2018-Feb-12 18:00N 40°44' W 073°58'2 4.8
2018-Feb-12 17:30N 40°42' W 074°00'2 4.9
2018-Feb-12 17:00N 40°44' W 073°58'0 0.2
2018-Feb-12 16:30N 40°44' W 073°58'2 5.0
2018-Feb-12 16:00N 40°42' W 074°00'3 5.1
2018-Feb-12 15:30N 40°44' W 073°58'1 1.3
2018-Feb-12 15:00N 40°43' W 073°58'2 4.3
2018-Feb-12 14:31N 40°42' W 074°00'3 5.1
2018-Feb-12 14:00N 40°44' W 073°58'1 1.5
2018-Feb-12 13:30N 40°43' W 073°58'2 4.4
2018-Feb-12 13:00N 40°42' W 074°00'3 5.1
2018-Feb-12 12:30N 40°44' W 073°58'1 1.4
2018-Feb-12 12:00N 40°43' W 073°58'2 4.3
2018-Feb-12 11:30N 40°42' W 074°00'2 2.9
2018-Feb-12 10:59N 40°42' W 073°58'0 0.0
2018-Feb-11 19:49N 40°42' W 073°58'1 3.6
2018-Feb-11 19:30N 40°42' W 073°60'3 5.5
2018-Feb-11 19:00N 40°45' W 073°58'2 4.1
2018-Feb-11 18:31N 40°43' W 073°58'1 2.3
2018-Feb-11 18:00N 40°42' W 073°60'3 5.4
2018-Feb-11 17:31N 40°45' W 073°58'2 4.1
2018-Feb-11 17:00N 40°43' W 073°58'1 2.3
2018-Feb-11 16:30N 40°42' W 073°60'3 5.2
2018-Feb-11 16:00N 40°45' W 073°58'2 4.4
2018-Feb-11 15:31N 40°43' W 073°58'1 2.4
2018-Feb-11 15:00N 40°42' W 073°60'3 5.4
2018-Feb-11 14:30N 40°45' W 073°58'2 4.1
2018-Feb-11 14:01N 40°43' W 073°58'1 2.4
2018-Feb-11 13:30N 40°42' W 073°60'3 5.4
2018-Feb-11 13:00N 40°45' W 073°58'2 4.3
2018-Feb-11 12:30N 40°43' W 073°58'0 1.0
2018-Feb-11 12:00N 40°42' W 073°58'0 0.0
2018-Feb-11 11:30N 40°42' W 073°58'0 0.0
2018-Feb-11 03:18N 40°42' W 073°58'1 3.9
2018-Feb-11 03:01N 40°42' W 073°60'3 5.4
2018-Feb-11 02:30N 40°45' W 073°58'2 4.2
2018-Feb-11 02:00N 40°43' W 073°58'1 2.3
2018-Feb-11 01:30N 40°42' W 073°60'3 5.4
2018-Feb-11 01:00N 40°45' W 073°58'2 4.3
2018-Feb-11 00:30N 40°43' W 073°58'1 2.3
2018-Feb-11 00:00N 40°42' W 073°60'3 5.4
2018-Feb-10 23:30N 40°45' W 073°58'2 3.9
2018-Feb-10 23:00N 40°43' W 073°59'1 2.0
2018-Feb-10 22:30N 40°42' W 073°60'3 5.3
2018-Feb-10 22:00N 40°45' W 073°58'2 4.2
2018-Feb-10 21:30N 40°43' W 073°58'1 2.3
2018-Feb-10 21:00N 40°42' W 073°60'3 5.4
2018-Feb-10 20:30N 40°45' W 073°58'2 4.1
2018-Feb-10 20:00N 40°43' W 073°58'0 1.0
2018-Feb-10 19:30N 40°42' W 073°58'0 0.2
2018-Feb-10 19:00N 40°42' W 073°58'1 2.5
2018-Feb-10 18:30N 40°43' W 073°58'1 1.2
2018-Feb-10 18:00N 40°44' W 073°58'3 5.0
2018-Feb-10 17:30N 40°42' W 074°00'2 4.3
2018-Feb-10 17:01N 40°43' W 073°58'1 1.2
2018-Feb-10 16:30N 40°44' W 073°58'3 5.1
2018-Feb-10 16:00N 40°42' W 074°00'2 4.3
2018-Feb-10 15:30N 40°43' W 073°58'1 1.2
2018-Feb-10 15:00N 40°44' W 073°58'3 5.2
2018-Feb-10 14:31N 40°42' W 074°00'2 4.3
2018-Feb-10 14:00N 40°43' W 073°58'1 1.2
2018-Feb-10 13:30N 40°44' W 073°58'3 5.1
2018-Feb-10 13:00N 40°42' W 074°00'2 4.3
2018-Feb-10 12:30N 40°43' W 073°58'1 1.2
2018-Feb-10 12:00N 40°44' W 073°58'3 5.1
2018-Feb-10 11:30N 40°42' W 074°00'2 3.2
2018-Feb-10 11:00N 40°42' W 073°58'0 0.0
2018-Feb-10 02:48N 40°42' W 073°58'1 4.1
2018-Feb-10 02:30N 40°42' W 073°60'4 7.8
2018-Feb-10 02:00N 40°46' W 073°57'1 2.1
2018-Feb-10 01:30N 40°45' W 073°58'3 6.4
2018-Feb-10 01:00N 40°42' W 074°00'0 0.0
2018-Feb-10 00:30N 40°42' W 074°00'4 8.2
2018-Feb-10 00:00N 40°46' W 073°57'1 1.8
2018-Feb-09 23:30N 40°45' W 073°58'3 6.6
2018-Feb-09 23:00N 40°42' W 074°00'1 5.1
2018-Feb-09 22:46N 40°43' W 073°59'0 0.0
2018-Feb-09 12:01N 40°43' W 073°59'1 0.1
2018-Feb-09 04:30N 40°42' W 073°58'0 0.4
2018-Feb-09 04:00N 40°42' W 073°58'0 0.1
2018-Feb-09 03:30N 40°42' W 073°58'5 4.8
2018-Feb-09 02:30N 40°38' W 074°02'4 4.0
2018-Feb-09 01:30N 40°42' W 074°00'1 1.0
2018-Feb-09 01:00N 40°42' W 074°00'4 1.8
2018-Feb-08 23:00N 40°38' W 074°02'4 1.8
2018-Feb-08 21:00N 40°42' W 074°00'0 0.7
2018-Feb-08 20:30N 40°42' W 074°00'4 1.5
2018-Feb-08 18:00N 40°38' W 074°02'4 2.4
2018-Feb-08 16:30N 40°42' W 074°00'0 0.0
2018-Feb-08 15:30N 40°42' W 074°00'4 3.5
2018-Feb-08 14:30N 40°38' W 074°02'4 3.6
2018-Feb-08 13:30N 40°42' W 074°00'4 7.2
2018-Feb-08 13:00N 40°38' W 074°02'0 0.0
2018-Feb-08 11:30N 40°38' W 074°02'5 9.4
2018-Feb-08 11:00N 40°42' W 073°58'  
Track history (hours):
 
Tides and Currents Weather Stations Pressure Air Temp Water Temp Dewpoint Dewpoint Depression Visibility Wind Speed Wind Dir Waves Ship Positions

Great Eagle

Owner: HNY Ferry Fleet LLC, New York, NY. More information available from US FCC via Universal Licensing System and Coast Guard Vessel Documentation Center.

Last reported at 2018-Feb-18 03:23 UTC. Time now 2018-Feb-18 09:14 UTC.
Position N 40°42' W 073°58'.

Length 26 m.

Type: Passenger vessel. MMSI: 367784640.

Date/timePositionNaut miles runAvg speedWind from/ knotsBaromVisibWave heightAir tempDewpointWater temp
2018-Feb-18 03:23N 40°42' W 073°58'2 4.8
2018-Feb-18 03:00N 40°44' W 073°58'3 5.1
2018-Feb-18 02:31N 40°42' W 074°00'2 4.2
2018-Feb-18 02:00N 40°43' W 073°58'1 1.6
2018-Feb-18 01:31N 40°44' W 073°58'3 5.1
2018-Feb-18 01:00N 40°42' W 074°00'2 4.3
2018-Feb-18 00:31N 40°43' W 073°58'1 1.3
2018-Feb-18 00:00N 40°44' W 073°58'3 5.1
2018-Feb-17 23:30N 40°42' W 074°00'2 4.2
2018-Feb-17 23:00N 40°43' W 073°58'1 1.2
2018-Feb-17 22:30N 40°44' W 073°58'3 5.2
2018-Feb-17 22:01N 40°42' W 074°00'2 4.3
2018-Feb-17 21:31N 40°43' W 073°58'1 1.1
2018-Feb-17 20:59N 40°44' W 073°58'3 5.2
2018-Feb-17 20:30N 40°42' W 074°00'2 4.3
2018-Feb-17 20:00N 40°43' W 073°58'1 1.2
2018-Feb-17 19:31N 40°44' W 073°58'3 5.1
2018-Feb-17 19:01N 40°42' W 074°00'0 0.1
2018-Feb-17 18:30N 40°42' W 074°00'1 2.8
2018-Feb-17 18:01N 40°42' W 073°59'2 2.9
2018-Feb-17 17:29N 40°44' W 073°58'2 3.7
2018-Feb-17 17:00N 40°42' W 073°58'0 0.0
2018-Feb-17 02:35N 40°42' W 073°59'118.6
2018-Feb-17 02:31N 40°42' W 074°00'4 8.3
2018-Feb-17 01:59N 40°46' W 073°57'1 1.9
2018-Feb-17 01:30N 40°45' W 073°57'3 7.0
2018-Feb-17 01:01N 40°42' W 074°00'0 0.1
2018-Feb-17 00:30N 40°42' W 074°00'4 7.9
2018-Feb-17 00:00N 40°45' W 073°57'1 1.4
2018-Feb-16 23:30N 40°45' W 073°58'3 6.3
2018-Feb-16 22:58N 40°42' W 074°00'3 7.6
2018-Feb-16 22:31N 40°45' W 073°57'1 1.1
2018-Feb-16 22:00N 40°45' W 073°57'4 8.3
2018-Feb-16 21:30N 40°42' W 074°00'2 3.0
2018-Feb-16 21:00N 40°42' W 073°58'0 0.0
2018-Feb-16 20:30N 40°42' W 073°58'0 0.0
2018-Feb-16 19:59N 40°42' W 073°58'0 0.0
2018-Feb-16 19:30N 40°42' W 073°58'0 0.0
2018-Feb-16 18:59N 40°42' W 073°58'2 4.6
2018-Feb-16 18:30N 40°41' W 074°01'0 0.0
2018-Feb-16 18:00N 40°41' W 074°01'1 1.6
2018-Feb-16 17:31N 40°42' W 074°00'0 0.2
2018-Feb-16 16:59N 40°42' W 074°00'2 3.1
2018-Feb-16 16:30N 40°42' W 073°58'1 1.4
2018-Feb-16 16:00N 40°42' W 073°59'1 1.9
2018-Feb-16 15:31N 40°42' W 074°00'4 7.6
2018-Feb-16 15:00N 40°38' W 074°02'4 7.1
2018-Feb-16 14:30N 40°42' W 074°00'3 6.6
2018-Feb-16 13:59N 40°45' W 073°58'2 4.7
2018-Feb-16 13:30N 40°46' W 073°56'3 5.7
2018-Feb-16 13:01N 40°44' W 073°58'2 4.5
2018-Feb-16 12:31N 40°42' W 074°00'4 8.1
2018-Feb-16 12:00N 40°46' W 073°57'4 7.1
2018-Feb-16 11:30N 40°42' W 073°58'0 0.0
2018-Feb-16 11:00N 40°42' W 073°58'0 0.0
2018-Feb-16 01:38N 40°42' W 073°58'0 3.1
2018-Feb-16 01:30N 40°42' W 073°59'1 2.5
2018-Feb-16 01:00N 40°44' W 073°58'0 0.3
2018-Feb-16 00:29N 40°43' W 073°58'2 4.5
2018-Feb-16 00:00N 40°42' W 074°00'3 5.1
2018-Feb-15 23:30N 40°44' W 073°58'1 1.3
2018-Feb-15 23:00N 40°43' W 073°58'2 3.5
2018-Feb-15 22:30N 40°42' W 073°60'3 5.2
2018-Feb-15 22:00N 40°44' W 073°58'1 2.3
2018-Feb-15 21:30N 40°43' W 073°58'2 3.5
2018-Feb-15 21:00N 40°42' W 073°60'3 5.5
2018-Feb-15 20:30N 40°45' W 073°58'1 2.8
2018-Feb-15 20:00N 40°43' W 073°58'2 3.1
2018-Feb-15 19:30N 40°42' W 073°60'3 5.5
2018-Feb-15 19:00N 40°45' W 073°58'2 4.2
2018-Feb-15 18:30N 40°43' W 073°58'1 2.3
2018-Feb-15 18:00N 40°42' W 073°60'3 5.4
2018-Feb-15 17:30N 40°45' W 073°58'2 4.5
2018-Feb-15 17:01N 40°42' W 073°59'1 1.1
2018-Feb-15 16:30N 40°42' W 073°59'2 4.8
2018-Feb-15 16:00N 40°45' W 073°58'2 4.4
2018-Feb-15 15:30N 40°43' W 073°58'0 0.2
2018-Feb-15 15:00N 40°43' W 073°58'2 4.1
2018-Feb-15 14:30N 40°45' W 073°58'3 5.1
2018-Feb-15 13:58N 40°42' W 073°60'2 3.3
2018-Feb-15 13:30N 40°43' W 073°58'1 2.9
2018-Feb-15 13:01N 40°45' W 073°58'2 4.9
2018-Feb-15 12:31N 40°42' W 073°59'1 2.5
2018-Feb-15 12:00N 40°43' W 073°58'1 2.6
2018-Feb-15 11:30N 40°45' W 073°58'2 4.7
2018-Feb-15 11:01N 40°42' W 073°58'0 0.4
2018-Feb-15 10:30N 40°42' W 073°58'0 0.0
2018-Feb-15 03:19N 40°42' W 073°58'3 8.0
2018-Feb-15 02:59N 40°45' W 073°58'2 4.5
2018-Feb-15 02:31N 40°43' W 073°58'0 0.0
2018-Feb-15 02:00N 40°43' W 073°58'2 4.2
2018-Feb-15 01:30N 40°45' W 073°58'2 4.3
2018-Feb-15 01:00N 40°43' W 073°58'0 0.1
2018-Feb-15 00:30N 40°43' W 073°58'2 4.1
2018-Feb-15 00:00N 40°45' W 073°58'3 5.3
2018-Feb-14 23:30N 40°42' W 073°60'1 2.2
2018-Feb-14 23:00N 40°43' W 073°58'2 4.3
2018-Feb-14 22:30N 40°45' W 073°58'3 5.4
2018-Feb-14 22:01N 40°42' W 073°60'2 3.4
2018-Feb-14 21:30N 40°43' W 073°58'1 2.5
2018-Feb-14 21:00N 40°44' W 073°58'3 5.3
2018-Feb-14 20:30N 40°42' W 073°60'2 3.4
2018-Feb-14 20:00N 40°43' W 073°58'1 1.7
2018-Feb-14 19:31N 40°44' W 073°58'2 4.7
2018-Feb-14 19:00N 40°42' W 073°60'2 3.5
2018-Feb-14 18:30N 40°43' W 073°58'1 1.9
2018-Feb-14 18:00N 40°44' W 073°58'3 5.3
2018-Feb-14 17:30N 40°42' W 074°00'2 4.0
2018-Feb-14 17:01N 40°43' W 073°58'1 1.2
2018-Feb-14 16:31N 40°44' W 073°58'3 5.0
2018-Feb-14 16:00N 40°42' W 074°00'2 4.3
2018-Feb-14 15:30N 40°43' W 073°58'1 1.1
2018-Feb-14 15:01N 40°44' W 073°58'3 5.0
2018-Feb-14 14:31N 40°42' W 074°00'3 5.1
2018-Feb-14 14:00N 40°44' W 073°58'1 1.4
2018-Feb-14 13:30N 40°43' W 073°58'2 4.2
2018-Feb-14 13:01N 40°42' W 074°00'3 5.0
2018-Feb-14 12:31N 40°44' W 073°58'1 1.3
2018-Feb-14 12:00N 40°43' W 073°58'2 4.3
2018-Feb-14 11:30N 40°42' W 074°00'2 3.0
2018-Feb-14 10:59N 40°42' W 073°58'0 0.0
2018-Feb-14 01:37N 40°42' W 073°58'0 4.2
2018-Feb-14 01:30N 40°42' W 073°59'2 3.2
2018-Feb-14 01:00N 40°44' W 073°58'0 0.9
2018-Feb-14 00:30N 40°43' W 073°58'2 4.5
2018-Feb-14 00:01N 40°42' W 074°00'3 5.0
2018-Feb-13 23:30N 40°44' W 073°58'1 1.5
2018-Feb-13 23:00N 40°43' W 073°58'2 4.1
2018-Feb-13 22:30N 40°42' W 074°00'3 5.9
2018-Feb-13 22:00N 40°45' W 073°58'1 2.5
2018-Feb-13 21:30N 40°43' W 073°58'2 4.2
2018-Feb-13 21:00N 40°42' W 074°00'3 6.0
2018-Feb-13 20:30N 40°45' W 073°58'1 2.9
2018-Feb-13 20:01N 40°43' W 073°58'2 3.1
2018-Feb-13 19:31N 40°42' W 073°60'3 5.5
2018-Feb-13 19:00N 40°45' W 073°58'2 4.1
2018-Feb-13 18:30N 40°43' W 073°58'1 2.3
2018-Feb-13 18:00N 40°42' W 073°60'3 5.6
2018-Feb-13 17:30N 40°45' W 073°58'2 4.0
2018-Feb-13 17:00N 40°43' W 073°58'1 1.9
2018-Feb-13 16:30N 40°42' W 073°60'3 5.0
2018-Feb-13 16:00N 40°45' W 073°58'2 4.3
2018-Feb-13 15:30N 40°43' W 073°58'1 1.3
2018-Feb-13 15:00N 40°42' W 073°59'2 4.7
2018-Feb-13 14:30N 40°45' W 073°58'2 4.4
2018-Feb-13 14:00N 40°42' W 073°59'0 0.2
2018-Feb-13 13:30N 40°43' W 073°58'2 4.2
2018-Feb-13 13:00N 40°45' W 073°58'2 5.0
2018-Feb-13 12:30N 40°42' W 073°59'1 1.6
2018-Feb-13 12:00N 40°43' W 073°58'2 4.4
2018-Feb-13 11:30N 40°45' W 073°58'3 5.4
2018-Feb-13 11:00N 40°42' W 073°58'0 0.0
2018-Feb-13 10:30N 40°42' W 073°58'0 0.0
2018-Feb-13 03:09N 40°42' W 073°58'1 9.0
2018-Feb-13 03:01N 40°43' W 073°58'1 1.6
2018-Feb-13 02:30N 40°43' W 073°58'1 2.3
2018-Feb-13 02:01N 40°42' W 073°60'3 5.3
2018-Feb-13 01:30N 40°45' W 073°58'2 4.3
2018-Feb-13 01:01N 40°43' W 073°58'1 1.0
2018-Feb-13 00:30N 40°42' W 073°59'2 4.5
2018-Feb-13 00:01N 40°45' W 073°58'2 4.5
2018-Feb-12 23:31N 40°42' W 073°59'1 1.2
2018-Feb-12 23:00N 40°43' W 073°58'2 4.3
2018-Feb-12 22:30N 40°45' W 073°58'3 5.3
2018-Feb-12 22:00N 40°42' W 073°60'1 2.3
2018-Feb-12 21:31N 40°43' W 073°58'2 4.1
2018-Feb-12 21:00N 40°45' W 073°58'3 5.5
2018-Feb-12 20:30N 40°42' W 073°60'1 2.4
2018-Feb-12 20:00N 40°43' W 073°58'2 4.0
2018-Feb-12 19:30N 40°45' W 073°58'3 5.6
2018-Feb-12 19:00N 40°42' W 073°60'2 3.5
2018-Feb-12 18:30N 40°43' W 073°58'1 1.2
2018-Feb-12 18:00N 40°44' W 073°58'2 4.8
2018-Feb-12 17:30N 40°42' W 074°00'2 4.9
2018-Feb-12 17:00N 40°44' W 073°58'0 0.2
2018-Feb-12 16:30N 40°44' W 073°58'2 5.0
2018-Feb-12 16:00N 40°42' W 074°00'3 5.1
2018-Feb-12 15:30N 40°44' W 073°58'1 1.3
2018-Feb-12 15:00N 40°43' W 073°58'2 4.3
2018-Feb-12 14:31N 40°42' W 074°00'3 5.1
2018-Feb-12 14:00N 40°44' W 073°58'1 1.5
2018-Feb-12 13:30N 40°43' W 073°58'2 4.4
2018-Feb-12 13:00N 40°42' W 074°00'3 5.1
2018-Feb-12 12:30N 40°44' W 073°58'1 1.4
2018-Feb-12 12:00N 40°43' W 073°58'2 4.3
2018-Feb-12 11:30N 40°42' W 074°00'2 2.9
2018-Feb-12 10:59N 40°42' W 073°58'0 0.0
2018-Feb-11 19:49N 40°42' W 073°58'1 3.6
2018-Feb-11 19:30N 40°42' W 073°60'3 5.5
2018-Feb-11 19:00N 40°45' W 073°58'2 4.1
2018-Feb-11 18:31N 40°43' W 073°58'1 2.3
2018-Feb-11 18:00N 40°42' W 073°60'3 5.4
2018-Feb-11 17:31N 40°45' W 073°58'2 4.1
2018-Feb-11 17:00N 40°43' W 073°58'1 2.3
2018-Feb-11 16:30N 40°42' W 073°60'3 5.2
2018-Feb-11 16:00N 40°45' W 073°58'2 4.4
2018-Feb-11 15:31N 40°43' W 073°58'1 2.4
2018-Feb-11 15:00N 40°42' W 073°60'3 5.4
2018-Feb-11 14:30N 40°45' W 073°58'2 4.1
2018-Feb-11 14:01N 40°43' W 073°58'1 2.4
2018-Feb-11 13:30N 40°42' W 073°60'3 5.4
2018-Feb-11 13:00N 40°45' W 073°58'2 4.3
2018-Feb-11 12:30N 40°43' W 073°58'0 1.0
2018-Feb-11 12:00N 40°42' W 073°58'0 0.0
2018-Feb-11 11:30N 40°42' W 073°58'0 0.0
2018-Feb-11 03:18N 40°42' W 073°58'1 3.9
2018-Feb-11 03:01N 40°42' W 073°60'3 5.4
2018-Feb-11 02:30N 40°45' W 073°58'2 4.2
2018-Feb-11 02:00N 40°43' W 073°58'1 2.3
2018-Feb-11 01:30N 40°42' W 073°60'3 5.4
2018-Feb-11 01:00N 40°45' W 073°58'2 4.3
2018-Feb-11 00:30N 40°43' W 073°58'1 2.3
2018-Feb-11 00:00N 40°42' W 073°60'3 5.4
2018-Feb-10 23:30N 40°45' W 073°58'2 3.9
2018-Feb-10 23:00N 40°43' W 073°59'1 2.0
2018-Feb-10 22:30N 40°42' W 073°60'3 5.3
2018-Feb-10 22:00N 40°45' W 073°58'2 4.2
2018-Feb-10 21:30N 40°43' W 073°58'1 2.3
2018-Feb-10 21:00N 40°42' W 073°60'3 5.4
2018-Feb-10 20:30N 40°45' W 073°58'2 4.1
2018-Feb-10 20:00N 40°43' W 073°58'0 1.0
2018-Feb-10 19:30N 40°42' W 073°58'0 0.2
2018-Feb-10 19:00N 40°42' W 073°58'1 2.5
2018-Feb-10 18:30N 40°43' W 073°58'1 1.2
2018-Feb-10 18:00N 40°44' W 073°58'3 5.0
2018-Feb-10 17:30N 40°42' W 074°00'2 4.3
2018-Feb-10 17:01N 40°43' W 073°58'1 1.2
2018-Feb-10 16:30N 40°44' W 073°58'3 5.1
2018-Feb-10 16:00N 40°42' W 074°00'2 4.3
2018-Feb-10 15:30N 40°43' W 073°58'1 1.2
2018-Feb-10 15:00N 40°44' W 073°58'3 5.2
2018-Feb-10 14:31N 40°42' W 074°00'2 4.3
2018-Feb-10 14:00N 40°43' W 073°58'1 1.2
2018-Feb-10 13:30N 40°44' W 073°58'3 5.1
2018-Feb-10 13:00N 40°42' W 074°00'2 4.3
2018-Feb-10 12:30N 40°43' W 073°58'1 1.2
2018-Feb-10 12:00N 40°44' W 073°58'3 5.1
2018-Feb-10 11:30N 40°42' W 074°00'2 3.2
2018-Feb-10 11:00N 40°42' W 073°58'0 0.0
2018-Feb-10 02:48N 40°42' W 073°58'1 4.1
2018-Feb-10 02:30N 40°42' W 073°60'4 7.8
2018-Feb-10 02:00N 40°46' W 073°57'1 2.1
2018-Feb-10 01:30N 40°45' W 073°58'3 6.4
2018-Feb-10 01:00N 40°42' W 074°00'0 0.0
2018-Feb-10 00:30N 40°42' W 074°00'4 8.2
2018-Feb-10 00:00N 40°46' W 073°57'1 1.8
2018-Feb-09 23:30N 40°45' W 073°58'3 6.6
2018-Feb-09 23:00N 40°42' W 074°00'1 5.1
2018-Feb-09 22:46N 40°43' W 073°59'0 0.0
2018-Feb-09 12:01N 40°43' W 073°59'1 0.1
2018-Feb-09 04:30N 40°42' W 073°58'0 0.4
2018-Feb-09 04:00N 40°42' W 073°58'0 0.1
2018-Feb-09 03:30N 40°42' W 073°58'5 4.8
2018-Feb-09 02:30N 40°38' W 074°02'4 4.0
2018-Feb-09 01:30N 40°42' W 074°00'1 1.0
2018-Feb-09 01:00N 40°42' W 074°00'4 1.8
2018-Feb-08 23:00N 40°38' W 074°02'4 1.8
2018-Feb-08 21:00N 40°42' W 074°00'0 0.7
2018-Feb-08 20:30N 40°42' W 074°00'4 1.5
2018-Feb-08 18:00N 40°38' W 074°02'4 2.4
2018-Feb-08 16:30N 40°42' W 074°00'0 0.0
2018-Feb-08 15:30N 40°42' W 074°00'4 3.5
2018-Feb-08 14:30N 40°38' W 074°02'4 3.6
2018-Feb-08 13:30N 40°42' W 074°00'4 7.2
2018-Feb-08 13:00N 40°38' W 074°02'0 0.0
2018-Feb-08 11:30N 40°38' W 074°02'5 9.4
2018-Feb-08 11:00N 40°42' W 073°58'  

Dump ship's entire track history